Time;durP1;ratioP1;P1;durP2;ratioP2;P2;SDS_P1;SDS_P2;PMS_P1;PMS_P2;Temp;Humidity;BMP_temperature;BMP_pressure;BME280_temperature;BME280_humidity;BME280_pressure;Samples;Min_cycle;Max_cycle;Signal;HPM_P1;HPM_P2
2021/07/21 00:00:31;;;;;;;9.05;5.25;;;;;;;22.61;62.86;100272.28;5116347;28;20027;-77
2021/07/21 00:03:01;;;;;;;5.88;3.78;;;;;;;22.56;63.73;100272.00;5115780;28;20031;-76
2021/07/21 00:05:35;;;;;;;5.60;3.80;;;;;;;22.54;63.52;100269.63;5116296;28;20031;-75
2021/07/21 00:08:01;;;;;;;4.20;3.80;;;;;;;22.52;63.79;100262.78;5115944;28;20105;-75
2021/07/21 00:10:27;;;;;;;3.78;3.47;;;;;;;22.52;63.66;100262.78;5115660;28;20482;-77
2021/07/21 00:15:51;;;;;;;4.30;3.70;;;;;;;22.41;63.06;100263.84;5116589;28;20145;-74
2021/07/21 00:18:35;;;;;;;3.72;3.30;;;;;;;22.39;62.95;100254.19;5133118;27;20065;-75
2021/07/21 00:21:03;;;;;;;3.80;3.40;;;;;;;22.33;62.99;100251.09;5115427;28;20055;-77
2021/07/21 00:23:35;;;;;;;5.85;3.70;;;;;;;22.35;62.94;100257.09;5115559;28;20549;-77
2021/07/21 00:26:06;;;;;;;4.05;3.40;;;;;;;22.38;62.91;100247.72;5115524;27;20470;-77
2021/07/21 00:28:41;;;;;;;3.97;3.67;;;;;;;22.31;62.99;100252.75;5115729;27;20027;-76
2021/07/21 00:31:10;;;;;;;4.70;3.63;;;;;;;22.39;62.73;100240.81;5115264;28;20019;-76
2021/07/21 00:33:41;;;;;;;3.78;3.47;;;;;;;22.39;62.88;100237.19;5115459;28;20436;-76
2021/07/21 00:36:07;;;;;;;4.90;4.10;;;;;;;22.33;62.78;100236.94;5115076;28;20527;-76
2021/07/21 00:38:34;;;;;;;7.05;3.65;;;;;;;22.26;62.18;100234.25;5115392;28;20035;-77
2021/07/21 00:41:05;;;;;;;6.38;3.92;;;;;;;22.32;62.43;100231.69;5115088;28;20032;-76
2021/07/21 00:43:35;;;;;;;5.70;3.60;;;;;;;22.36;61.33;100227.53;5115025;28;20043;-76
2021/07/21 00:46:03;;;;;;;6.55;3.80;;;;;;;22.40;61.07;100228.22;5114980;28;20028;-76
2021/07/21 00:48:29;;;;;;;3.78;3.38;;;;;;;22.49;60.88;100236.94;5115113;28;20032;-75
2021/07/21 00:50:59;;;;;;;3.33;3.03;;;;;;;22.61;60.48;100237.44;5115485;28;20098;-77
2021/07/21 00:53:26;;;;;;;9.30;3.97;;;;;;;22.61;60.35;100231.78;5115968;28;20032;-77
2021/07/21 00:55:57;;;;;;;6.28;3.80;;;;;;;22.59;60.33;100235.06;5115235;28;20047;-75
2021/07/21 00:58:23;;;;;;;5.43;3.60;;;;;;;22.60;60.21;100238.69;5115290;28;20419;-75
2021/07/21 01:00:55;;;;;;;5.95;3.10;;;;;;;22.52;60.45;100234.44;5114651;28;20039;-74
2021/07/21 01:03:24;;;;;;;3.58;3.22;;;;;;;22.49;60.11;100236.13;5114624;28;20024;-77
2021/07/21 01:05:50;;;;;;;3.20;3.00;;;;;;;22.44;60.37;100240.28;5116431;28;20335;-75
2021/07/21 01:08:17;;;;;;;3.30;3.10;;;;;;;22.36;61.11;100238.84;5114747;28;20168;-74
2021/07/21 01:10:50;;;;;;;3.35;3.10;;;;;;;22.33;61.37;100231.25;5115811;28;20028;-75
2021/07/21 01:13:32;;;;;;;5.45;3.53;;;;;;;22.30;61.50;100229.28;5132038;27;20023;-77
2021/07/21 01:16:06;;;;;;;4.07;3.67;;;;;;;22.33;61.23;100231.25;5114272;28;20497;-77
2021/07/21 01:19:03;;;;;;;3.72;3.42;;;;;;;22.35;60.98;100223.09;5113828;28;20035;-75
2021/07/21 01:21:56;;;;;;;4.85;3.47;;;;;;;22.19;61.75;100203.25;5103189;28;20042;-77
2021/07/21 01:24:53;;;;;;;3.70;3.50;;;;;;;22.31;61.93;100219.53;5114525;28;20504;-76
2021/07/21 01:27:30;;;;;;;4.30;3.30;;;;;;;22.28;62.39;100219.66;5114124;28;20032;-75
2021/07/21 01:30:04;;;;;;;4.45;3.50;;;;;;;22.28;62.29;100223.28;5114067;28;20028;-77
2021/07/21 01:32:32;;;;;;;3.83;3.53;;;;;;;22.25;61.73;100221.31;5114253;28;20051;-76
2021/07/21 01:35:27;;;;;;;4.53;4.00;;;;;;;22.26;62.06;100220.06;5114005;28;20114;-75
2021/07/21 01:38:02;;;;;;;5.15;3.25;;;;;;;22.24;61.72;100219.72;5111093;28;20045;-76
2021/07/21 01:40:34;;;;;;;3.17;2.97;;;;;;;22.24;62.04;100211.22;5113869;28;20053;-74
2021/07/21 01:43:06;;;;;;;4.57;3.80;;;;;;;22.26;62.18;100210.78;5097072;28;20038;-75
2021/07/21 01:45:38;;;;;;;4.60;3.58;;;;;;;22.31;61.85;100213.88;5114121;28;20031;-77
2021/07/21 01:48:09;;;;;;;3.65;3.35;;;;;;;22.29;61.96;100212.75;5114251;28;20539;-77
2021/07/21 01:50:38;;;;;;;6.75;3.88;;;;;;;22.26;62.24;100207.94;5096872;28;20035;-77
2021/07/21 01:53:07;;;;;;;4.13;3.72;;;;;;;22.12;61.84;100187.22;5113696;28;20066;-76
2021/07/21 01:55:38;;;;;;;3.30;3.00;;;;;;;22.18;61.97;100210.16;5113901;28;20374;-76
2021/07/21 01:58:08;;;;;;;3.72;3.42;;;;;;;22.04;62.43;100204.81;5113489;28;20028;-77
2021/07/21 02:00:39;;;;;;;4.30;3.28;;;;;;;22.03;62.49;100221.00;5115151;28;20414;-77
2021/07/21 02:03:10;;;;;;;4.45;4.03;;;;;;;22.07;62.25;100216.06;5113773;28;20031;-75
2021/07/21 02:05:37;;;;;;;4.10;3.75;;;;;;;22.07;62.17;100221.72;5113668;28;20024;-76
2021/07/21 02:08:06;;;;;;;3.83;3.50;;;;;;;22.07;62.49;100221.72;5113321;28;20035;-77
2021/07/21 02:10:39;;;;;;;3.35;3.13;;;;;;;22.04;62.60;100216.13;5113644;28;20032;-76
2021/07/21 02:13:12;;;;;;;3.97;3.67;;;;;;;22.00;62.58;100221.06;5114541;28;20470;-77
2021/07/21 02:15:39;;;;;;;3.78;3.25;;;;;;;22.02;62.93;100222.25;5113197;28;20051;-75
2021/07/21 02:18:11;;;;;;;3.88;3.55;;;;;;;21.98;62.99;100222.31;5113057;28;20062;-77
2021/07/21 02:20:39;;;;;;;3.90;3.53;;;;;;;22.23;62.29;100218.94;5113161;28;20043;-74
2021/07/21 02:23:09;;;;;;;4.53;4.00;;;;;;;22.09;62.35;100218.44;5114463;28;20019;-76
2021/07/21 02:25:37;;;;;;;3.90;3.55;;;;;;;22.03;62.53;100225.88;5109838;28;20065;-77
2021/07/21 02:28:06;;;;;;;4.68;4.15;;;;;;;21.97;62.71;100217.09;5130169;27;20059;-75
2021/07/21 02:30:32;;;;;;;4.18;3.78;;;;;;;21.91;63.00;100225.34;5129295;27;20055;-76
2021/07/21 02:33:15;;;;;;;8.93;7.32;;;;;;;21.93;62.50;100227.72;5130371;27;20484;-77
2021/07/21 02:35:45;;;;;;;23.55;21.25;;;;;;;21.87;62.99;100224.59;5113239;28;20142;-77
2021/07/21 02:38:13;;;;;;;39.00;34.40;;;;;;;21.83;62.94;100218.22;5112872;28;20030;-75
2021/07/21 02:40:43;;;;;;;57.58;50.38;;;;;;;21.85;63.11;100226.28;5112547;28;20085;-77
2021/07/21 02:43:13;;;;;;;40.63;36.45;;;;;;;21.77;63.88;100222.00;5112866;28;20030;-74
2021/07/21 02:45:42;;;;;;;25.63;23.00;;;;;;;21.77;63.41;100219.19;5112809;28;20032;-78
2021/07/21 02:48:09;;;;;;;13.55;12.30;;;;;;;21.80;63.43;100219.13;5112845;28;20027;-75
2021/07/21 02:50:38;;;;;;;12.48;10.90;;;;;;;21.73;63.80;100224.91;5113276;28;20466;-76
2021/07/21 02:53:10;;;;;;;10.77;9.23;;;;;;;21.85;63.34;100221.44;5113734;28;20042;-76
2021/07/21 02:55:51;;;;;;;8.00;7.20;;;;;;;21.81;63.57;100229.19;5112765;28;20122;-74
2021/07/21 02:58:24;;;;;;;8.30;7.00;;;;;;;21.78;63.76;100240.59;5112653;28;20020;-77
2021/07/21 03:00:57;;;;;;;6.80;6.10;;;;;;;21.77;63.83;100236.19;5112634;28;20027;-76
2021/07/21 03:03:28;;;;;;;6.80;6.20;;;;;;;21.81;64.04;100240.53;5130075;28;20454;-75
2021/07/21 03:05:56;;;;;;;6.68;5.97;;;;;;;21.74;64.05;100237.06;5113196;28;20035;-78
2021/07/21 03:08:27;;;;;;;8.60;6.53;;;;;;;21.71;64.41;100250.06;5113151;28;20074;-75
2021/07/21 03:11:03;;;;;;;7.75;7.07;;;;;;;21.65;64.73;100244.09;5114146;28;20035;-75
2021/07/21 03:13:48;;;;;;;8.05;7.45;;;;;;;21.72;64.07;100245.97;5113662;28;20038;-75
2021/07/21 03:16:24;;;;;;;9.30;8.40;;;;;;;21.81;63.76;100254.69;5095511;28;20066;-78
2021/07/21 03:18:56;;;;;;;9.20;7.50;;;;;;;21.78;64.35;100257.59;5114060;28;20381;-74
2021/07/21 03:21:26;;;;;;;9.02;8.32;;;;;;;21.82;63.75;100250.63;5129629;28;20028;-75
2021/07/21 03:23:55;;;;;;;5.20;4.80;;;;;;;21.91;63.39;100255.69;5112421;28;20027;-75
2021/07/21 03:26:24;;;;;;;4.63;4.22;;;;;;;21.88;63.57;100265.06;5112945;28;20055;-74
2021/07/21 03:28:56;;;;;;;6.55;5.95;;;;;;;21.87;63.91;100257.81;5112409;28;20473;-75
2021/07/21 03:31:25;;;;;;;8.00;7.25;;;;;;;21.78;64.29;100255.56;5130129;28;20412;-74
2021/07/21 03:34:04;;;;;;;12.48;11.40;;;;;;;21.66;64.75;100264.72;5112325;28;20027;-75
2021/07/21 03:36:37;;;;;;;11.30;9.80;;;;;;;21.61;65.22;100271.69;5095389;28;20435;-75
2021/07/21 03:39:11;;;;;;;7.78;6.97;;;;;;;21.63;65.25;100269.25;5129472;28;20038;-77
2021/07/21 03:41:38;;;;;;;7.43;6.72;;;;;;;21.64;65.11;100268.00;5112624;28;20020;-76
2021/07/21 03:44:11;;;;;;;9.57;8.65;;;;;;;21.61;65.02;100262.41;5116124;28;20067;-77
2021/07/21 03:46:40;;;;;;;15.07;13.00;;;;;;;21.54;64.94;100271.06;5133540;27;20382;-76
2021/07/21 03:49:07;;;;;;;11.45;10.32;;;;;;;21.56;65.04;100277.88;5116235;28;20359;-76
2021/07/21 03:51:43;;;;;;;14.88;10.05;;;;;;;21.50;65.07;100273.94;5115978;28;20027;-76
2021/07/21 03:54:13;;;;;;;12.85;9.70;;;;;;;21.48;65.30;100269.97;5116015;27;20024;-75
2021/07/21 03:56:44;;;;;;;12.55;9.30;;;;;;;21.60;65.09;100278.59;5116130;28;20054;-74
2021/07/21 03:59:16;;;;;;;9.15;8.25;;;;;;;21.65;64.75;100280.13;5116019;28;20039;-76
2021/07/21 04:01:46;;;;;;;12.63;7.78;;;;;;;21.66;64.92;100284.53;5116581;28;20452;-75
2021/07/21 04:04:19;;;;;;;11.10;7.25;;;;;;;21.66;65.00;100276.84;5115798;28;20035;-75
2021/07/21 04:06:51;;;;;;;8.35;7.25;;;;;;;21.65;65.12;100283.75;5115618;28;20035;-76
2021/07/21 04:09:21;;;;;;;7.32;6.40;;;;;;;21.69;65.21;100286.50;5115678;28;20082;-77
2021/07/21 04:11:53;;;;;;;4.32;3.90;;;;;;;21.71;64.54;100275.53;5115830;28;20363;-75
2021/07/21 04:14:22;;;;;;;6.47;4.55;;;;;;;21.78;64.27;100278.22;5115189;28;20135;-76
2021/07/21 04:16:52;;;;;;;7.00;3.85;;;;;;;22.04;64.00;100284.13;5115751;27;20111;-77
2021/07/21 04:19:19;;;;;;;4.75;4.28;;;;;;;22.48;62.61;100277.88;5116466;28;20047;-74
2021/07/21 04:21:51;;;;;;;4.28;3.92;;;;;;;22.95;60.94;100286.00;5115540;28;20387;-75
2021/07/21 04:24:21;;;;;;;5.00;4.28;;;;;;;23.43;59.49;100274.97;5114926;28;20024;-74
2021/07/21 04:26:50;;;;;;;5.47;4.78;;;;;;;23.85;58.27;100275.78;5115926;28;20016;-76
2021/07/21 04:29:23;;;;;;;6.45;4.38;;;;;;;24.30;57.18;100281.31;5116055;28;20024;-76
2021/07/21 04:31:54;;;;;;;6.25;4.28;;;;;;;24.72;55.62;100280.41;5132688;27;20396;-76
2021/07/21 04:34:23;;;;;;;4.13;3.72;;;;;;;25.17;54.16;100290.66;5115433;28;20374;-75
2021/07/21 04:36:56;;;;;;;6.45;3.47;;;;;;;25.54;53.11;100291.75;5116587;28;20114;-75
2021/07/21 04:39:25;;;;;;;4.72;4.28;;;;;;;25.86;52.14;100287.72;5117016;28;20015;-75
2021/07/21 04:41:56;;;;;;;6.00;3.90;;;;;;;26.19;51.18;100301.50;5132177;27;20034;-75
2021/07/21 04:44:24;;;;;;;4.20;3.63;;;;;;;26.59;49.83;100290.16;5115043;28;20430;-75
2021/07/21 04:46:53;;;;;;;4.32;3.80;;;;;;;26.88;48.85;100292.59;5115041;28;20030;-76
2021/07/21 04:49:22;;;;;;;4.25;3.95;;;;;;;27.12;47.90;100290.75;5115147;28;20123;-75
2021/07/21 04:51:52;;;;;;;4.80;4.28;;;;;;;27.53;47.31;100291.38;5115191;28;20035;-75
2021/07/21 04:54:24;;;;;;;4.18;3.78;;;;;;;27.84;46.37;100291.19;5114751;28;20028;-76
2021/07/21 04:56:52;;;;;;;4.90;3.72;;;;;;;28.33;45.34;100304.41;5114705;28;20019;-77
2021/07/21 04:59:23;;;;;;;4.88;3.97;;;;;;;28.41;44.16;100304.88;5115277;28;20030;-74
2021/07/21 05:01:51;;;;;;;6.25;3.67;;;;;;;28.75;43.53;100299.94;5114834;28;20022;-76
2021/07/21 05:04:22;;;;;;;4.43;3.85;;;;;;;28.91;42.69;100305.25;5115893;28;20102;-73
2021/07/21 05:06:50;;;;;;;4.88;3.85;;;;;;;29.20;42.39;100305.41;5114535;28;20015;-75
2021/07/21 05:09:15;;;;;;;4.13;3.75;;;;;;;29.36;41.58;100309.09;5114580;28;20020;-75
2021/07/21 05:11:48;;;;;;;4.72;3.40;;;;;;;29.55;41.58;100309.75;5114559;28;20026;-74
2021/07/21 05:14:16;;;;;;;5.30;4.30;;;;;;;29.13;41.54;100314.34;5113953;28;20058;-76
2021/07/21 05:16:47;;;;;;;5.13;3.72;;;;;;;29.62;40.71;100326.59;5114282;28;20099;-75
2021/07/21 05:19:18;;;;;;;5.43;4.38;;;;;;;29.02;42.28;100325.56;5114300;28;20038;-75
2021/07/21 05:21:46;;;;;;;5.57;4.45;;;;;;;28.90;43.09;100326.56;5114275;28;20055;-75
2021/07/21 05:24:17;;;;;;;5.15;3.72;;;;;;;29.04;42.83;100328.75;5114137;28;20032;-76
2021/07/21 05:26:47;;;;;;;3.75;3.42;;;;;;;29.45;41.27;100329.84;5114471;28;20024;-76
2021/07/21 05:29:15;;;;;;;4.38;3.55;;;;;;;30.01;40.50;100335.91;5114640;28;20345;-74
2021/07/21 05:31:46;;;;;;;4.60;3.38;;;;;;;29.95;40.34;100337.88;5131100;27;20462;-75
2021/07/21 05:34:14;;;;;;;6.30;4.18;;;;;;;30.64;38.60;100336.47;5113964;28;20019;-75
2021/07/21 05:36:45;;;;;;;3.88;3.33;;;;;;;30.88;38.10;100344.94;5115175;28;20023;-76
2021/07/21 05:39:16;;;;;;;5.57;4.40;;;;;;;31.42;36.97;100347.50;5131037;27;20024;-75
2021/07/21 05:41:45;;;;;;;4.80;3.05;;;;;;;31.95;36.17;100349.19;5114174;28;20031;-74
2021/07/21 05:44:13;;;;;;;5.00;3.95;;;;;;;32.00;35.90;100352.09;5114252;28;20389;-75
2021/07/21 05:46:44;;;;;;;3.67;3.38;;;;;;;32.26;35.17;100352.09;5113503;28;20472;-76
2021/07/21 05:49:12;;;;;;;5.95;3.40;;;;;;;32.09;35.01;100342.53;5113651;28;20023;-75
2021/07/21 05:51:40;;;;;;;4.43;3.42;;;;;;;32.14;34.44;100361.94;5113871;28;20047;-75
2021/07/21 05:54:09;;;;;;;6.80;4.00;;;;;;;32.26;33.84;100357.06;5114136;28;20339;-75
2021/07/21 05:56:35;;;;;;;4.43;3.63;;;;;;;32.97;33.36;100354.50;5113405;28;20019;-76
2021/07/21 05:59:05;;;;;;;5.40;3.30;;;;;;;32.95;33.31;100357.13;5114044;28;20077;-77
2021/07/21 06:01:31;;;;;;;4.40;3.22;;;;;;;33.43;32.77;100359.22;5113665;28;20027;-74
2021/07/21 06:04:02;;;;;;;3.58;3.25;;;;;;;33.33;32.87;100368.06;5115517;28;20397;-76
2021/07/21 06:06:32;;;;;;;4.32;3.30;;;;;;;32.65;33.87;100363.16;5113328;28;20518;-74
2021/07/21 06:09:06;;;;;;;3.78;3.20;;;;;;;31.80;35.23;100361.59;5113328;28;20023;-75
2021/07/21 06:11:32;;;;;;;3.47;3.17;;;;;;;32.35;34.60;100371.31;5130755;27;20030;-76
2021/07/21 06:14:02;;;;;;;4.57;3.55;;;;;;;32.03;35.39;100371.25;5113058;28;20043;-74
2021/07/21 06:16:28;;;;;;;4.97;3.42;;;;;;;31.37;37.34;100368.34;5114229;28;20023;-76
2021/07/21 06:18:57;;;;;;;5.00;4.50;;;;;;;31.54;37.32;100372.25;5112926;28;20034;-76
2021/07/21 06:21:28;;;;;;;6.55;4.85;;;;;;;30.87;39.63;100374.16;5130043;27;20015;-74
2021/07/21 06:23:59;;;;;;;6.28;5.60;;;;;;;31.24;39.49;100378.09;5114182;28;20038;-75
2021/07/21 06:26:28;;;;;;;5.40;4.50;;;;;;;31.12;38.63;100381.34;5113951;28;20024;-79
2021/07/21 06:28:56;;;;;;;6.28;4.75;;;;;;;32.19;37.10;100381.34;5114443;28;20458;-76
2021/07/21 06:31:22;;;;;;;7.93;5.30;;;;;;;31.70;38.67;100380.28;5130070;27;20022;-76
2021/07/21 06:33:52;;;;;;;9.38;4.95;;;;;;;32.67;36.51;100383.63;5129705;27;20373;-76
2021/07/21 06:36:23;;;;;;;9.00;6.10;;;;;;;32.96;36.42;100385.41;5112419;28;20031;-77
2021/07/21 06:38:54;;;;;;;5.10;4.53;;;;;;;32.92;36.93;100382.00;5113154;28;20027;-77
2021/07/21 06:41:22;;;;;;;6.13;4.75;;;;;;;32.92;36.20;100390.66;5112798;28;20368;-77
2021/07/21 06:43:54;;;;;;;5.65;4.28;;;;;;;32.94;35.83;100393.00;5112726;28;20088;-75
2021/07/21 06:46:25;;;;;;;5.68;4.63;;;;;;;33.01;35.50;100392.53;5112827;28;20023;-77
2021/07/21 06:48:53;;;;;;;4.78;4.32;;;;;;;33.42;34.49;100393.03;5114244;28;20020;-76
2021/07/21 06:51:24;;;;;;;3.88;3.58;;;;;;;33.32;33.72;100394.53;5129636;27;20024;-77
2021/07/21 06:53:54;;;;;;;7.05;3.67;;;;;;;33.03;33.95;100390.72;5113696;28;20086;-77
2021/07/21 06:56:23;;;;;;;6.53;3.70;;;;;;;33.26;33.94;100400.28;5112430;28;20026;-75
2021/07/21 06:58:52;;;;;;;4.78;4.07;;;;;;;32.57;35.01;100394.53;5113088;28;20019;-76
2021/07/21 07:01:19;;;;;;;7.28;3.80;;;;;;;32.71;34.80;100392.03;5114061;28;20016;-77
2021/07/21 07:03:49;;;;;;;4.38;3.95;;;;;;;32.71;35.55;100387.06;5113018;28;20024;-76
2021/07/21 07:06:16;;;;;;;3.83;3.53;;;;;;;32.45;35.51;100397.84;5112448;28;20023;-77
2021/07/21 07:08:46;;;;;;;4.15;3.53;;;;;;;32.53;35.15;100402.59;5112873;28;20024;-77
2021/07/21 07:11:12;;;;;;;4.40;4.00;;;;;;;32.80;34.28;100398.38;5112402;28;20114;-76
2021/07/21 07:13:41;;;;;;;4.78;3.50;;;;;;;32.96;34.29;100396.94;5112326;28;20165;-75
2021/07/21 07:16:12;;;;;;;6.53;3.60;;;;;;;32.47;35.47;100398.09;5112469;28;20178;-77
2021/07/21 07:18:38;;;;;;;4.55;3.70;;;;;;;32.90;34.50;100406.84;5116253;28;20019;-75
2021/07/21 07:21:09;;;;;;;5.28;3.38;;;;;;;32.79;33.55;100405.44;5133955;27;20020;-75
2021/07/21 07:23:38;;;;;;;3.20;2.95;;;;;;;33.56;33.04;100414.34;5116514;28;20067;-75
2021/07/21 07:26:06;;;;;;;5.00;3.85;;;;;;;33.59;32.99;100422.75;5133624;27;20023;-75
2021/07/21 07:28:32;;;;;;;4.15;3.70;;;;;;;33.56;32.33;100415.13;5115825;28;20024;-76
2021/07/21 07:30:58;;;;;;;4.18;3.60;;;;;;;33.95;31.28;100411.63;5116229;28;20470;-77
2021/07/21 07:33:24;;;;;;;7.38;3.75;;;;;;;34.22;31.63;100407.22;5116332;28;20035;-75
2021/07/21 07:35:50;;;;;;;3.83;3.22;;;;;;;35.06;29.95;100415.16;5116612;28;20027;-77
2021/07/21 07:38:17;;;;;;;5.05;3.92;;;;;;;34.38;30.86;100409.34;5116317;28;20032;-76
2021/07/21 07:40:43;;;;;;;4.38;3.60;;;;;;;34.52;30.04;100422.00;5117843;28;20034;-76
2021/07/21 07:43:16;;;;;;;3.72;3.15;;;;;;;34.37;30.74;100409.88;5133243;27;20024;-76
2021/07/21 07:45:44;;;;;;;3.50;3.20;;;;;;;35.04;29.15;100414.88;5117014;28;20107;-77
2021/07/21 07:48:10;;;;;;;3.70;3.40;;;;;;;35.47;28.46;100414.50;5115863;28;20042;-75
2021/07/21 07:50:36;;;;;;;5.35;4.05;;;;;;;35.52;28.36;100413.72;5132978;27;20020;-77
2021/07/21 07:53:04;;;;;;;8.10;5.43;;;;;;;34.88;30.40;100408.56;5116412;28;20035;-77
2021/07/21 07:55:34;;;;;;;8.32;4.53;;;;;;;35.57;29.88;100421.59;5115810;28;20028;-76
2021/07/21 07:58:11;;;;;;;5.20;4.40;;;;;;;35.71;28.98;100411.00;5116967;28;20475;-76
2021/07/21 08:00:39;;;;;;;6.30;4.80;;;;;;;35.48;29.66;100408.22;5129468;27;20028;-77
2021/07/21 08:03:07;;;;;;;5.22;4.65;;;;;;;36.14;28.50;100414.22;5133106;27;20035;-76
2021/07/21 08:05:36;;;;;;;4.50;3.70;;;;;;;36.58;27.90;100412.31;5115687;28;20110;-77
2021/07/21 08:08:04;;;;;;;8.70;4.80;;;;;;;35.63;28.83;100410.75;5132563;27;20526;-77
2021/07/21 08:10:34;;;;;;;6.70;4.60;;;;;;;34.92;29.88;100411.97;5115809;28;20097;-77
2021/07/21 08:13:02;;;;;;;6.25;4.43;;;;;;;35.78;28.61;100405.44;5116867;28;20034;-76
2021/07/21 08:15:30;;;;;;;7.97;4.80;;;;;;;35.19;29.21;100406.69;5115263;28;20080;-75
2021/07/21 08:17:56;;;;;;;6.07;5.03;;;;;;;35.45;28.67;100412.16;5115779;28;20420;-76
2021/07/21 08:20:27;;;;;;;4.85;4.03;;;;;;;35.43;29.05;100412.66;5114911;28;20028;-75
2021/07/21 08:22:54;;;;;;;10.13;4.70;;;;;;;36.09;28.09;100417.94;5115273;28;20024;-75
2021/07/21 08:25:25;;;;;;;5.32;4.28;;;;;;;35.76;28.11;100410.97;5115355;28;20147;-76
2021/07/21 08:27:56;;;;;;;4.88;4.47;;;;;;;35.97;28.06;100411.44;5115019;28;20374;-76
2021/07/21 08:30:25;;;;;;;9.15;4.10;;;;;;;36.54;27.78;100412.66;5114607;28;20088;-78
2021/07/21 08:32:52;;;;;;;9.48;4.35;;;;;;;36.67;26.88;100414.91;5115755;28;20465;-78
2021/07/21 08:35:23;;;;;;;5.38;4.13;;;;;;;35.94;28.44;100410.38;5115723;28;20036;-78
2021/07/21 08:37:54;;;;;;;7.93;4.63;;;;;;;36.25;27.74;100419.16;5115391;28;20374;-78
2021/07/21 08:40:24;;;;;;;9.13;4.87;;;;;;;35.97;28.25;100410.66;5115393;28;20474;-75
2021/07/21 08:42:54;;;;;;;7.55;4.95;;;;;;;35.53;27.99;100410.31;5115992;28;20034;-77
2021/07/21 08:45:22;;;;;;;4.80;3.92;;;;;;;36.54;27.81;100406.03;5115812;28;20358;-78
2021/07/21 08:47:51;;;;;;;7.25;5.38;;;;;;;36.52;26.98;100406.59;5116724;28;20043;-77
2021/07/21 08:50:19;;;;;;;6.15;5.07;;;;;;;36.50;27.86;100412.16;5114825;28;20096;-75
2021/07/21 08:52:53;;;;;;;8.10;5.90;;;;;;;36.30;26.98;100413.31;5114791;28;20032;-75
2021/07/21 08:55:23;;;;;;;7.03;4.53;;;;;;;36.15;27.28;100418.69;5114712;28;20024;-75
2021/07/21 08:57:54;;;;;;;6.50;4.68;;;;;;;35.66;27.85;100410.50;5114546;28;20538;-77
2021/07/21 09:00:22;;;;;;;6.15;4.60;;;;;;;35.77;27.10;100403.88;5115596;28;20031;-75
2021/07/21 09:02:47;;;;;;;7.70;5.07;;;;;;;36.38;26.69;100411.41;5114896;28;20092;-76
2021/07/21 09:05:17;;;;;;;6.93;5.40;;;;;;;35.63;27.84;100404.97;5114593;28;20419;-75
2021/07/21 09:07:43;;;;;;;5.32;4.60;;;;;;;35.69;27.44;100411.56;5115815;28;20031;-75
2021/07/21 09:10:17;;;;;;;6.60;4.28;;;;;;;35.75;27.20;100399.94;5114410;28;20024;-76
2021/07/21 09:12:46;;;;;;;8.38;4.60;;;;;;;36.33;26.49;100403.56;5131462;27;20488;-76
2021/07/21 09:15:14;;;;;;;5.63;4.25;;;;;;;36.78;26.74;100393.72;5113884;28;20108;-77
2021/07/21 09:18:08;;;;;;;5.55;4.22;;;;;;;36.51;28.10;100401.34;5098077;28;20028;-79
2021/07/21 09:21:04;;;;;;;4.80;4.40;;;;;;;37.37;27.53;100394.97;5114409;28;20145;-78
2021/07/21 09:23:42;;;;;;;6.30;4.50;;;;;;;37.72;26.76;100391.13;5130483;27;20123;-77
2021/07/21 09:26:32;;;;;;;5.75;4.65;;;;;;;38.41;25.46;100399.13;5114205;28;20088;-78
2021/07/21 09:29:01;;;;;;;6.28;4.53;;;;;;;38.09;25.56;100395.34;5115768;28;20029;-76
2021/07/21 09:31:36;;;;;;;4.22;3.88;;;;;;;38.58;25.34;100395.91;5113966;28;20031;-75
2021/07/21 09:34:25;;;;;;;5.90;4.43;;;;;;;38.51;25.46;100391.53;5131109;27;20051;-75
2021/07/21 09:37:08;;;;;;;6.53;4.35;;;;;;;38.22;25.79;100390.38;5115402;28;20034;-78
2021/07/21 09:39:36;;;;;;;7.00;4.80;;;;;;;37.06;27.31;100387.66;5096657;28;20161;-77
2021/07/21 09:42:05;;;;;;;4.95;4.45;;;;;;;37.14;27.76;100385.72;5115436;28;20526;-75
2021/07/21 09:44:41;;;;;;;7.82;4.30;;;;;;;36.76;28.66;100396.38;5115321;28;20082;-75
2021/07/21 09:47:12;;;;;;;4.43;3.75;;;;;;;37.29;27.50;100383.19;5130798;27;20382;-77
2021/07/21 09:49:39;;;;;;;8.70;4.13;;;;;;;37.47;27.08;100393.28;5113483;28;20023;-76
2021/07/21 09:52:19;;;;;;;4.30;3.58;;;;;;;37.17;27.42;100387.53;5113560;28;20031;-76
2021/07/21 09:55:15;;;;;;;4.00;3.60;;;;;;;37.57;26.81;100379.97;5113496;28;20077;-77
2021/07/21 09:57:45;;;;;;;3.92;3.47;;;;;;;37.94;26.26;100382.13;5113690;28;20077;-78
2021/07/21 10:00:25;;;;;;;4.78;3.67;;;;;;;37.37;26.74;100384.16;5130875;27;20137;-79
2021/07/21 10:03:12;;;;;;;7.47;4.32;;;;;;;37.29;27.03;100376.56;5113222;28;20489;-76
2021/07/21 10:05:57;;;;;;;5.05;3.67;;;;;;;36.72;27.20;100376.38;5109886;28;20048;-76
2021/07/21 10:08:35;;;;;;;4.32;3.63;;;;;;;36.37;28.02;100377.19;5113464;28;20039;-76
2021/07/21 10:11:24;;;;;;;4.93;3.92;;;;;;;36.73;27.70;100377.94;5113254;28;20055;-77
2021/07/21 10:14:12;;;;;;;6.68;3.72;;;;;;;36.51;28.36;100381.06;5114515;28;20432;-77
2021/07/21 10:16:48;;;;;;;5.15;3.97;;;;;;;36.96;27.70;100376.41;5114631;28;20053;-77
2021/07/21 10:19:26;;;;;;;4.95;3.45;;;;;;;36.21;28.25;100378.88;5113012;28;20032;-76
2021/07/21 10:21:58;;;;;;;3.80;3.50;;;;;;;36.57;27.76;100376.00;5112862;28;20047;-77
2021/07/21 10:24:32;;;;;;;6.20;3.47;;;;;;;36.93;27.12;100374.63;5114534;28;20027;-78
2021/07/21 10:27:01;;;;;;;4.45;3.38;;;;;;;37.27;26.94;100373.44;5113638;28;20493;-78
2021/07/21 10:29:30;;;;;;;3.60;3.22;;;;;;;37.06;27.57;100371.03;5130182;27;20479;-75
2021/07/21 10:31:56;;;;;;;4.95;3.90;;;;;;;36.39;28.11;100366.63;5113691;28;20032;-77
2021/07/21 10:34:24;;;;;;;4.15;3.70;;;;;;;36.77;28.06;100366.06;5112865;28;20023;-77
2021/07/21 10:36:53;;;;;;;4.97;3.67;;;;;;;36.07;28.41;100371.38;5113646;28;20081;-77
2021/07/21 10:39:26;;;;;;;4.00;3.63;;;;;;;36.57;28.81;100370.97;5112886;28;20119;-78
2021/07/21 10:41:56;;;;;;;5.68;4.00;;;;;;;36.20;29.20;100366.50;5130579;27;20046;-77
2021/07/21 10:44:25;;;;;;;7.53;3.90;;;;;;;35.92;29.78;100357.22;5129953;27;20020;-75
2021/07/21 10:46:52;;;;;;;7.45;3.28;;;;;;;36.15;28.92;100360.75;5130465;27;20055;-77
2021/07/21 10:49:39;;;;;;;4.38;3.97;;;;;;;36.57;28.35;100358.59;5114084;28;20110;-77
2021/07/21 10:54:48;;;;;;;5.00;4.38;;;;;;;36.81;28.05;100323.84;5114658;28;20034;-77
2021/07/21 11:00:39;;;;;;;4.97;3.63;;;;;;;36.20;30.16;100342.56;5114473;28;20038;-75
2021/07/21 11:03:31;;;;;;;5.80;4.45;;;;;;;36.04;31.04;100334.78;5112732;28;20496;-78
2021/07/21 11:06:01;;;;;;;4.50;4.10;;;;;;;35.67;30.75;100336.03;5107683;28;20031;-78
2021/07/21 11:08:31;;;;;;;5.85;4.47;;;;;;;34.87;31.66;100331.84;5113822;28;20034;-76
2021/07/21 11:11:09;;;;;;;4.57;4.20;;;;;;;34.78;31.74;100329.22;5114428;28;20048;-75
2021/07/21 11:13:38;;;;;;;7.25;4.50;;;;;;;34.88;31.18;100318.16;5113609;28;20038;-76
2021/07/21 11:16:39;;;;;;;4.78;4.30;;;;;;;35.37;30.75;100325.13;5112581;28;20130;-77
2021/07/21 11:19:33;;;;;;;8.13;4.07;;;;;;;35.68;29.93;100320.25;5113156;28;20039;-77
2021/07/21 11:22:03;;;;;;;4.30;3.42;;;;;;;35.20;30.42;100269.47;5112430;28;20493;-77
2021/07/21 11:24:30;;;;;;;5.93;4.15;;;;;;;35.38;30.03;100326.69;5114139;28;20483;-75
2021/07/21 11:27:03;;;;;;;5.95;3.83;;;;;;;35.60;29.20;100313.47;5112289;28;20036;-77
2021/07/21 11:29:33;;;;;;;4.95;4.32;;;;;;;34.95;29.68;100320.56;5113922;28;20032;-75
2021/07/21 11:32:02;;;;;;;4.20;3.60;;;;;;;35.62;29.70;100311.59;5112910;28;20370;-75
2021/07/21 11:34:30;;;;;;;6.28;3.97;;;;;;;35.31;30.08;100321.44;5112878;28;20381;-74
2021/07/21 11:36:58;;;;;;;5.60;4.07;;;;;;;35.84;29.59;100310.66;5112223;28;20118;-75
2021/07/21 11:39:44;;;;;;;5.65;3.90;;;;;;;35.80;29.33;100313.09;5112231;28;20501;-76
2021/07/21 11:45:05;;;;;;;5.50;4.28;;;;;;;35.46;30.02;100311.69;5113568;28;20027;-75
2021/07/21 11:47:39;;;;;;;9.48;3.90;;;;;;;35.49;30.36;100308.53;5095676;28;20042;-78
2021/07/21 11:50:17;;;;;;;4.88;3.90;;;;;;;35.51;30.01;100310.88;5112464;28;20436;-77
2021/07/21 11:52:53;;;;;;;4.30;3.90;;;;;;;35.66;29.72;100299.75;5113445;28;20030;-75
2021/07/21 11:55:24;;;;;;;10.00;4.22;;;;;;;35.21;30.35;100299.97;5113719;28;20133;-75